createdAt,value
2019-05-18T00:01:56.857Z,7.90
2019-05-18T00:04:24.671Z,8.30
2019-05-18T00:06:52.417Z,9.20
2019-05-18T00:09:20.171Z,7.83
2019-05-18T00:11:47.880Z,8.50
2019-05-18T00:14:15.732Z,9.05
2019-05-18T00:16:43.419Z,8.65
2019-05-18T00:19:11.308Z,8.20
2019-05-18T00:21:38.994Z,8.85
2019-05-18T00:24:06.765Z,8.18
2019-05-18T00:26:34.522Z,8.85
2019-05-18T00:29:02.330Z,7.78
2019-05-18T00:31:30.238Z,8.13
2019-05-18T00:33:58.168Z,7.30
2019-05-18T00:36:25.855Z,7.47
2019-05-18T00:38:54.315Z,7.62
2019-05-18T00:41:22.206Z,7.70
2019-05-18T00:43:50.131Z,8.88
2019-05-18T00:46:17.830Z,9.48
2019-05-18T00:48:45.675Z,11.30
2019-05-18T00:51:13.697Z,10.78
2019-05-18T00:53:41.502Z,10.70
2019-05-18T00:56:09.181Z,9.25
2019-05-18T00:58:36.917Z,9.63
2019-05-18T01:01:04.655Z,9.80
2019-05-18T01:03:32.527Z,10.95
2019-05-18T01:06:00.806Z,10.65
2019-05-18T01:08:28.620Z,12.82
2019-05-18T01:10:58.400Z,11.93
2019-05-18T01:13:26.233Z,11.65
2019-05-18T01:15:54.014Z,11.88
2019-05-18T01:18:21.840Z,12.13
2019-05-18T01:20:50.478Z,11.80
2019-05-18T01:23:18.671Z,11.40
2019-05-18T01:25:46.497Z,11.57
2019-05-18T01:28:16.472Z,11.73
2019-05-18T01:30:44.425Z,10.90
2019-05-18T01:33:12.213Z,10.88
2019-05-18T01:35:39.981Z,10.60
2019-05-18T01:38:07.772Z,11.12
2019-05-18T01:40:35.739Z,10.90
2019-05-18T01:43:03.411Z,10.80
2019-05-18T01:45:31.150Z,11.48
2019-05-18T01:48:12.667Z,11.40
2019-05-18T01:50:29.333Z,10.40
2019-05-18T01:52:57.329Z,9.88
2019-05-18T01:55:25.071Z,10.05
2019-05-18T01:57:52.768Z,9.20
2019-05-18T02:00:22.057Z,9.85
2019-05-18T02:02:50.173Z,9.90
2019-05-18T02:05:17.866Z,9.53
2019-05-18T02:07:45.701Z,9.80
2019-05-18T02:10:13.582Z,9.25
2019-05-18T02:12:41.561Z,8.45
2019-05-18T02:15:18.170Z,7.45
2019-05-18T02:17:46.029Z,7.70
2019-05-18T02:20:14.015Z,7.25
2019-05-18T02:22:42.085Z,8.43
2019-05-18T02:25:09.875Z,7.33
2019-05-18T02:27:38.038Z,7.05
2019-05-18T02:30:06.409Z,7.10
2019-05-18T02:32:35.075Z,7.15
2019-05-18T02:35:03.810Z,6.92
2019-05-18T02:37:32.157Z,7.03
2019-05-18T02:39:59.843Z,6.75
2019-05-18T02:42:30.624Z,7.05
2019-05-18T02:44:57.206Z,6.92
2019-05-18T02:47:24.922Z,7.37
2019-05-18T02:49:52.592Z,7.15
2019-05-18T02:52:20.451Z,6.72
2019-05-18T02:54:48.106Z,6.53
2019-05-18T02:57:16.007Z,6.60
2019-05-18T02:59:43.729Z,6.30
2019-05-18T03:02:11.506Z,6.83
2019-05-18T03:04:39.179Z,6.15
2019-05-18T03:07:06.950Z,7.30
2019-05-18T03:09:34.891Z,6.10
2019-05-18T03:12:02.685Z,5.35
2019-05-18T03:14:30.418Z,7.22
2019-05-18T03:16:58.106Z,5.60
2019-05-18T03:19:25.839Z,6.37
2019-05-18T03:21:53.766Z,6.53
2019-05-18T03:24:21.508Z,6.40
2019-05-18T03:26:49.193Z,5.92
2019-05-18T03:29:16.939Z,7.10
2019-05-18T03:31:44.632Z,6.50
2019-05-18T03:34:12.472Z,6.40
2019-05-18T03:36:40.135Z,6.75
2019-05-18T03:39:07.922Z,6.30
2019-05-18T03:41:35.710Z,6.15
2019-05-18T03:44:03.542Z,6.80
2019-05-18T03:46:31.241Z,6.35
2019-05-18T03:48:59.055Z,6.60
2019-05-18T03:51:26.649Z,6.78
2019-05-18T03:53:54.408Z,6.47
2019-05-18T03:56:22.102Z,6.10
2019-05-18T03:58:49.838Z,6.75
2019-05-18T04:01:17.568Z,5.70
2019-05-18T04:03:45.251Z,6.00
2019-05-18T04:06:13.002Z,6.45
2019-05-18T04:08:40.770Z,6.05
2019-05-18T04:11:08.505Z,6.58
2019-05-18T04:13:36.178Z,5.90
2019-05-18T04:16:03.922Z,6.40
2019-05-18T04:18:31.598Z,5.72
2019-05-18T04:21:04.198Z,6.15
2019-05-18T04:23:32.668Z,6.08
2019-05-18T04:26:00.826Z,6.40
2019-05-18T04:28:28.715Z,6.25
2019-05-18T04:30:56.471Z,5.83
2019-05-18T04:33:24.469Z,6.00
2019-05-18T04:35:52.222Z,5.80
2019-05-18T04:38:19.899Z,6.10
2019-05-18T04:40:47.658Z,6.80
2019-05-18T04:43:15.422Z,6.55
2019-05-18T04:45:43.205Z,6.45
2019-05-18T04:48:10.884Z,6.58
2019-05-18T04:50:38.649Z,6.10
2019-05-18T04:53:06.344Z,6.30
2019-05-18T04:55:34.773Z,6.62
2019-05-18T04:58:02.551Z,6.70
2019-05-18T05:00:30.423Z,7.30
2019-05-18T05:02:58.150Z,6.60
2019-05-18T05:05:25.803Z,7.53
2019-05-18T05:07:53.564Z,7.00
2019-05-18T05:10:21.324Z,7.40
2019-05-18T05:12:49.060Z,7.25
2019-05-18T05:15:16.734Z,7.15
2019-05-18T05:17:44.474Z,7.28
2019-05-18T05:20:19.832Z,9.00
2019-05-18T05:22:42.178Z,7.95
2019-05-18T05:25:10.469Z,9.00
2019-05-18T05:27:38.330Z,8.43
2019-05-18T05:30:06.651Z,8.20
2019-05-18T05:32:34.793Z,7.65
2019-05-18T05:35:02.806Z,7.80
2019-05-18T05:37:31.404Z,8.68
2019-05-18T05:39:59.110Z,8.70
2019-05-18T05:42:26.836Z,9.73
2019-05-18T05:44:54.523Z,7.65
2019-05-18T05:47:22.286Z,8.30
2019-05-18T05:49:50.106Z,8.10
2019-05-18T05:52:17.880Z,8.33
2019-05-18T05:54:45.629Z,8.40
2019-05-18T05:57:13.347Z,8.85
2019-05-18T05:59:41.077Z,9.35
2019-05-18T06:02:08.765Z,8.38
2019-05-18T06:04:36.510Z,7.80
2019-05-18T06:07:04.221Z,8.10
2019-05-18T06:09:32.013Z,8.93
2019-05-18T06:11:59.716Z,8.50
2019-05-18T06:14:27.503Z,8.48
2019-05-18T06:16:55.163Z,8.40
2019-05-18T06:19:22.929Z,7.87
2019-05-18T06:21:50.619Z,8.58
2019-05-18T06:24:18.371Z,8.70
2019-05-18T06:26:46.060Z,7.40
2019-05-18T06:29:13.849Z,8.50
2019-05-18T06:31:41.659Z,8.28
2019-05-18T06:34:09.427Z,8.25
2019-05-18T06:36:37.136Z,8.85
2019-05-18T06:39:06.511Z,8.05
2019-05-18T06:41:34.295Z,8.20
2019-05-18T06:44:02.369Z,8.70
2019-05-18T06:46:30.349Z,8.58
2019-05-18T06:48:58.240Z,7.92
2019-05-18T06:51:26.021Z,8.40
2019-05-18T06:53:53.748Z,9.78
2019-05-18T06:56:21.915Z,8.13
2019-05-18T06:58:50.011Z,7.97
2019-05-18T07:01:19.293Z,8.05
2019-05-18T07:03:47.015Z,7.90
2019-05-18T07:06:14.790Z,7.80
2019-05-18T07:08:42.484Z,8.65
2019-05-18T07:11:10.334Z,7.92
2019-05-18T07:13:38.011Z,9.05
2019-05-18T07:16:05.916Z,8.30
2019-05-18T07:18:33.590Z,8.58
2019-05-18T07:21:01.359Z,8.30
2019-05-18T07:23:29.067Z,8.85
2019-05-18T07:25:56.916Z,8.38
2019-05-18T07:28:24.709Z,8.48
2019-05-18T07:30:52.491Z,9.18
2019-05-18T07:33:20.179Z,8.43
2019-05-18T07:35:48.046Z,9.25
2019-05-18T07:38:15.665Z,9.13
2019-05-18T07:40:43.522Z,8.50
2019-05-18T07:43:11.433Z,8.80
2019-05-18T07:45:39.238Z,8.83
2019-05-18T07:48:06.998Z,9.00
2019-05-18T07:50:40.748Z,9.30
2019-05-18T07:53:08.403Z,9.75
2019-05-18T07:55:36.073Z,9.83
2019-05-18T07:58:03.866Z,9.98
2019-05-18T08:00:33.239Z,9.13
2019-05-18T08:03:10.356Z,8.65
2019-05-18T08:05:38.038Z,9.38
2019-05-18T08:08:59.226Z,8.95
2019-05-18T08:11:32.008Z,8.00
2019-05-18T08:13:59.766Z,10.03
2019-05-18T08:16:27.390Z,10.30
2019-05-18T08:18:58.025Z,10.70
2019-05-18T08:21:24.680Z,8.70
2019-05-18T08:23:52.477Z,9.95
2019-05-18T08:26:20.274Z,10.20
2019-05-18T08:28:50.599Z,9.08
2019-05-18T08:31:18.395Z,10.25
2019-05-18T08:33:46.181Z,10.40
2019-05-18T08:36:13.966Z,9.05
2019-05-18T08:38:41.738Z,9.20
2019-05-18T08:41:09.360Z,9.58
2019-05-18T08:43:37.094Z,9.75
2019-05-18T08:46:04.774Z,10.45
2019-05-18T08:48:32.753Z,9.85
2019-05-18T08:51:00.475Z,10.50
2019-05-18T08:53:28.218Z,10.50
2019-05-18T08:55:55.917Z,9.98
2019-05-18T08:58:23.737Z,10.00
2019-05-18T09:00:51.441Z,9.25
2019-05-18T09:03:19.258Z,10.00
2019-05-18T09:05:47.137Z,10.20
2019-05-18T09:08:14.971Z,13.28
2019-05-18T09:10:42.810Z,11.00
2019-05-18T09:13:10.514Z,10.50
2019-05-18T09:15:41.922Z,10.90
2019-05-18T09:18:10.435Z,11.15
2019-05-18T09:20:38.238Z,10.98
2019-05-18T09:23:06.074Z,10.85
2019-05-18T09:25:34.032Z,11.48
2019-05-18T09:28:01.757Z,11.40
2019-05-18T09:30:29.760Z,11.93
2019-05-18T09:32:57.471Z,12.73
2019-05-18T09:35:25.247Z,10.70
2019-05-18T09:37:52.951Z,10.20
2019-05-18T09:40:21.877Z,12.00
2019-05-18T09:42:49.664Z,11.70
2019-05-18T09:45:17.621Z,11.35
2019-05-18T09:47:45.682Z,11.97
2019-05-18T09:50:13.684Z,11.83
2019-05-18T09:52:45.239Z,12.15
2019-05-18T09:55:12.053Z,10.68
2019-05-18T09:57:41.436Z,11.55
2019-05-18T10:00:10.133Z,10.70
2019-05-18T10:02:38.913Z,10.00
2019-05-18T10:05:06.935Z,11.75
2019-05-18T10:07:35.051Z,10.40
2019-05-18T10:10:03.376Z,11.75
2019-05-18T10:12:32.446Z,12.15
2019-05-18T10:15:00.300Z,10.15
2019-05-18T10:17:28.102Z,11.08
2019-05-18T10:19:55.919Z,11.22
2019-05-18T10:22:23.752Z,11.80
2019-05-18T10:24:51.383Z,12.90
2019-05-18T10:27:19.207Z,11.38
2019-05-18T10:29:47.005Z,11.30
2019-05-18T10:32:14.765Z,10.60
2019-05-18T10:34:42.483Z,11.20
2019-05-18T10:37:10.278Z,10.60
2019-05-18T10:39:38.814Z,9.88
2019-05-18T10:42:06.863Z,10.25
2019-05-18T10:44:34.565Z,10.32
2019-05-18T10:47:02.490Z,10.70
2019-05-18T10:49:30.258Z,9.13
2019-05-18T10:51:58.054Z,9.03
2019-05-18T10:54:25.830Z,10.32
2019-05-18T10:56:53.525Z,9.05
2019-05-18T10:59:21.375Z,8.95
2019-05-18T11:01:49.079Z,9.45
2019-05-18T11:04:16.942Z,10.08
2019-05-18T11:06:44.771Z,10.05
2019-05-18T11:09:12.721Z,9.05
2019-05-18T11:11:40.466Z,9.20
2019-05-18T11:14:08.265Z,8.78
2019-05-18T11:16:36.070Z,9.58
2019-05-18T11:19:03.801Z,8.75
2019-05-18T11:21:31.572Z,10.00
2019-05-18T11:23:59.323Z,8.50
2019-05-18T11:26:27.022Z,9.00
2019-05-18T11:28:54.814Z,9.25
2019-05-18T11:31:22.573Z,9.73
2019-05-18T11:33:50.426Z,9.70
2019-05-18T11:36:18.153Z,8.20
2019-05-18T11:38:45.914Z,7.37
2019-05-18T11:41:13.639Z,8.90
2019-05-18T11:43:41.418Z,8.37
2019-05-18T11:46:09.146Z,8.35
2019-05-18T11:48:36.949Z,7.90
2019-05-18T11:51:04.679Z,8.10
2019-05-18T11:53:32.399Z,7.60
2019-05-18T11:56:00.195Z,7.83
2019-05-18T11:58:28.106Z,6.67
2019-05-18T12:00:55.946Z,7.23
2019-05-18T12:03:23.846Z,7.07
2019-05-18T12:05:51.625Z,6.00
2019-05-18T12:08:19.335Z,5.87
2019-05-18T12:10:47.246Z,5.43
2019-05-18T12:13:14.964Z,5.70
2019-05-18T12:15:43.833Z,5.20
2019-05-18T12:18:11.640Z,5.07
2019-05-18T12:20:39.408Z,5.33
2019-05-18T12:23:08.627Z,5.10
2019-05-18T12:25:36.939Z,4.20
2019-05-18T12:28:04.763Z,4.73
2019-05-18T12:30:32.643Z,4.53
2019-05-18T12:33:00.801Z,4.53
2019-05-18T12:35:28.537Z,4.10
2019-05-18T12:37:56.293Z,4.13
2019-05-18T12:40:24.358Z,4.70
2019-05-18T12:42:52.290Z,5.00
2019-05-18T12:45:20.979Z,5.60
2019-05-18T12:47:48.971Z,5.87
2019-05-18T12:50:19.294Z,5.13
2019-05-18T12:52:49.823Z,5.03
2019-05-18T12:55:19.925Z,5.30
2019-05-18T12:57:49.319Z,5.70
2019-05-18T13:00:18.097Z,5.43
2019-05-18T13:02:47.564Z,5.83
2019-05-18T13:05:15.734Z,6.60
2019-05-18T13:07:43.974Z,6.63
2019-05-18T13:10:14.294Z,5.93
2019-05-18T13:12:47.412Z,5.97
2019-05-18T13:15:15.656Z,5.90
2019-05-18T13:17:43.842Z,5.80
2019-05-18T13:20:13.089Z,5.60
2019-05-18T13:22:42.287Z,4.78
2019-05-18T13:25:11.628Z,3.55
2019-05-18T13:27:40.934Z,2.10
2019-05-18T13:30:09.409Z,2.10
2019-05-18T13:32:39.149Z,2.10
2019-05-18T13:35:07.565Z,2.15
2019-05-18T13:37:36.937Z,2.30
2019-05-18T13:40:08.545Z,2.00
2019-05-18T13:42:36.747Z,2.02
2019-05-18T13:45:04.617Z,2.12
2019-05-18T13:47:33.972Z,2.05
2019-05-18T13:50:01.716Z,2.90
2019-05-18T13:52:30.819Z,2.20
2019-05-18T13:55:03.940Z,2.00
2019-05-18T13:57:28.543Z,3.17
2019-05-18T13:59:56.243Z,2.70
2019-05-18T14:02:24.045Z,2.60
2019-05-18T14:04:51.856Z,3.02
2019-05-18T14:07:19.652Z,3.08
2019-05-18T14:09:47.415Z,2.55
2019-05-18T14:12:15.276Z,3.47
2019-05-18T14:14:45.471Z,3.72
2019-05-18T14:17:13.639Z,3.40
2019-05-18T14:19:41.539Z,4.12
2019-05-18T14:22:09.294Z,2.33
2019-05-18T14:24:37.043Z,3.00
2019-05-18T14:27:04.924Z,3.12
2019-05-18T14:29:32.739Z,2.55
2019-05-18T14:32:00.596Z,2.20
2019-05-18T14:34:28.602Z,2.47
2019-05-18T14:36:56.511Z,2.40
2019-05-18T14:39:27.398Z,2.50
2019-05-18T14:41:55.265Z,2.35
2019-05-18T14:44:23.143Z,2.10
2019-05-18T14:46:50.990Z,1.85
2019-05-18T14:49:18.803Z,1.90
2019-05-18T14:51:46.785Z,2.30
2019-05-18T14:54:14.584Z,2.10
2019-05-18T14:56:42.354Z,2.30
2019-05-18T14:59:10.204Z,2.40
2019-05-18T15:01:38.016Z,2.45
2019-05-18T15:04:05.948Z,2.45
2019-05-18T15:06:33.699Z,2.85
2019-05-18T15:09:01.843Z,2.35
2019-05-18T15:11:31.236Z,2.58
2019-05-18T15:13:58.995Z,2.40
2019-05-18T15:16:26.919Z,2.40
2019-05-18T15:18:54.748Z,2.50
2019-05-18T15:21:22.557Z,2.10
2019-05-18T15:23:50.293Z,2.80
2019-05-18T15:26:18.106Z,2.45
2019-05-18T15:28:45.882Z,2.60
2019-05-18T15:31:13.693Z,2.20
2019-05-18T15:33:41.402Z,2.30
2019-05-18T15:36:09.339Z,2.10
2019-05-18T15:38:37.103Z,2.72
2019-05-18T15:41:04.986Z,2.22
2019-05-18T15:43:32.916Z,2.12
2019-05-18T15:46:00.695Z,2.35
2019-05-18T15:48:28.477Z,2.00
2019-05-18T15:50:59.170Z,2.65
2019-05-18T15:53:25.994Z,2.30
2019-05-18T15:56:05.244Z,1.90
2019-05-18T15:58:23.616Z,2.33
2019-05-18T16:00:51.423Z,2.10
2019-05-18T16:03:19.213Z,2.30
2019-05-18T16:05:47.031Z,2.35
2019-05-18T16:08:14.865Z,3.10
2019-05-18T16:10:42.873Z,3.65
2019-05-18T16:13:10.656Z,4.40
2019-05-18T16:15:38.510Z,3.95
2019-05-18T16:18:06.392Z,3.45
2019-05-18T16:20:34.152Z,3.20
2019-05-18T16:23:02.069Z,3.50
2019-05-18T16:25:30.012Z,3.08
2019-05-18T16:28:37.786Z,2.45
2019-05-18T16:31:06.956Z,2.40
2019-05-18T16:33:34.847Z,2.50
2019-05-18T16:36:05.623Z,2.75
2019-05-18T16:38:39.886Z,3.05
2019-05-18T16:41:07.659Z,3.10
2019-05-18T16:43:35.746Z,3.00
2019-05-18T16:46:03.517Z,2.83
2019-05-18T16:48:31.364Z,2.85
2019-05-18T16:50:59.194Z,2.67
2019-05-18T16:53:27.083Z,3.10
2019-05-18T16:55:54.921Z,3.20
2019-05-18T16:58:22.720Z,3.30
2019-05-18T17:00:52.348Z,3.22
2019-05-18T17:03:20.231Z,3.10
2019-05-18T17:05:48.054Z,2.70
2019-05-18T17:08:15.931Z,2.77
2019-05-18T17:10:43.768Z,2.67
2019-05-18T17:13:11.682Z,2.37
2019-05-18T17:15:39.380Z,2.10
2019-05-18T17:18:07.246Z,2.70
2019-05-18T17:20:34.930Z,2.25
2019-05-18T17:23:02.661Z,2.60
2019-05-18T17:25:30.869Z,2.40
2019-05-18T17:27:58.768Z,2.25
2019-05-18T17:30:27.014Z,2.58
2019-05-18T17:32:54.882Z,2.40
2019-05-18T17:35:22.973Z,2.30
2019-05-18T17:37:50.869Z,2.42
2019-05-18T17:40:20.960Z,2.15
2019-05-18T17:42:48.781Z,2.37
2019-05-18T17:45:16.667Z,2.77
2019-05-18T17:47:44.625Z,2.42
2019-05-18T17:50:12.926Z,2.22
2019-05-18T17:52:41.551Z,2.35
2019-05-18T17:55:10.437Z,2.55
2019-05-18T17:57:38.570Z,2.65
2019-05-18T18:00:07.006Z,2.17
2019-05-18T18:02:35.961Z,2.42
2019-05-18T18:05:04.278Z,2.35
2019-05-18T18:07:33.207Z,2.47
2019-05-18T18:10:04.419Z,2.35
2019-05-18T18:12:32.954Z,2.50
2019-05-18T18:15:00.811Z,2.55
2019-05-18T18:17:28.532Z,2.30
2019-05-18T18:19:56.384Z,2.60
2019-05-18T18:22:24.115Z,2.15
2019-05-18T18:24:52.104Z,2.25
2019-05-18T18:27:25.313Z,2.42
2019-05-18T18:29:49.854Z,2.27
2019-05-18T18:32:17.616Z,3.27
2019-05-18T18:34:45.386Z,2.75
2019-05-18T18:37:13.448Z,2.77
2019-05-18T18:39:41.308Z,3.00
2019-05-18T18:42:09.194Z,2.70
2019-05-18T18:44:37.147Z,3.42
2019-05-18T18:47:05.040Z,3.37
2019-05-18T18:49:32.791Z,3.10
2019-05-18T18:52:00.972Z,3.40
2019-05-18T18:54:28.752Z,3.02
2019-05-18T18:56:56.612Z,2.90
2019-05-18T18:59:24.371Z,3.58
2019-05-18T19:01:52.290Z,3.75
2019-05-18T19:04:20.169Z,3.52
2019-05-18T19:06:48.098Z,3.35
2019-05-18T19:09:15.932Z,3.47
2019-05-18T19:11:43.770Z,5.05
2019-05-18T19:14:11.619Z,4.00
2019-05-18T19:16:39.405Z,3.90
2019-05-18T19:19:07.363Z,3.83
2019-05-18T19:21:35.193Z,4.72
2019-05-18T19:24:03.174Z,4.47
2019-05-18T19:26:31.000Z,5.40
2019-05-18T19:28:59.381Z,5.50
2019-05-18T19:31:27.261Z,6.40
2019-05-18T19:33:55.195Z,6.75
2019-05-18T19:36:22.963Z,6.17
2019-05-18T19:38:52.837Z,4.15
2019-05-18T19:41:20.800Z,8.08
2019-05-18T19:43:50.918Z,5.72
2019-05-18T19:46:18.825Z,6.00
2019-05-18T19:48:46.743Z,6.55
2019-05-18T19:51:16.175Z,5.55
2019-05-18T19:53:44.159Z,8.33
2019-05-18T19:56:13.381Z,7.62
2019-05-18T19:59:01.478Z,6.90
2019-05-18T20:01:29.249Z,5.05
2019-05-18T20:03:57.081Z,6.40
2019-05-18T20:06:24.886Z,4.05
2019-05-18T20:08:52.728Z,3.50
2019-05-18T20:11:20.525Z,4.25
2019-05-18T20:13:48.370Z,5.08
2019-05-18T20:16:16.232Z,4.65
2019-05-18T20:18:44.140Z,3.05
2019-05-18T20:21:13.626Z,3.45
2019-05-18T20:23:41.427Z,3.85
2019-05-18T20:26:09.996Z,3.05
2019-05-18T20:28:37.942Z,3.02
2019-05-18T20:31:05.788Z,3.40
2019-05-18T20:34:15.758Z,3.33
2019-05-18T20:43:18.212Z,3.25
2019-05-18T20:46:02.925Z,2.75
2019-05-18T20:48:53.563Z,3.70
2019-05-18T20:51:46.077Z,3.25
2019-05-18T20:54:20.821Z,3.30
2019-05-18T22:31:24.189Z,6.47
2019-05-18T22:33:55.252Z,7.47
2019-05-18T22:36:23.357Z,7.40
2019-05-18T22:38:51.699Z,6.53
2019-05-18T22:41:19.758Z,6.28
2019-05-18T22:43:47.900Z,6.35
2019-05-18T22:46:16.078Z,5.97
2019-05-18T22:48:44.109Z,6.17
2019-05-18T22:51:12.143Z,6.25
2019-05-18T22:53:40.241Z,7.20
2019-05-18T22:56:08.394Z,6.37
2019-05-18T22:58:36.804Z,5.75
2019-05-18T23:01:05.006Z,6.00
2019-05-18T23:03:33.233Z,5.72
2019-05-18T23:06:01.668Z,6.53
2019-05-18T23:08:30.011Z,6.28
2019-05-18T23:11:01.676Z,6.03
2019-05-18T23:13:31.465Z,5.78
2019-05-18T23:15:59.698Z,5.72
2019-05-18T23:18:27.920Z,5.95
2019-05-18T23:20:56.356Z,5.75
2019-05-18T23:23:24.887Z,5.53
2019-05-18T23:25:53.107Z,5.10
2019-05-18T23:28:21.460Z,5.25
2019-05-18T23:30:49.754Z,5.62
2019-05-18T23:33:18.102Z,5.60
2019-05-18T23:35:46.323Z,5.90
2019-05-18T23:38:14.450Z,6.08
2019-05-18T23:40:42.592Z,5.90
2019-05-18T23:43:10.582Z,5.55
2019-05-18T23:45:38.641Z,5.95
2019-05-18T23:48:06.566Z,5.50
2019-05-18T23:50:34.901Z,6.08
2019-05-18T23:53:02.919Z,5.75
2019-05-18T23:55:31.017Z,5.30
2019-05-18T23:58:05.184Z,6.50
